TimeCDT,TemperatureF,Dew PointF,Humidity,Sea Level PressureIn,VisibilityMPH,Wind Direction,Wind SpeedMPH,Gust SpeedMPH,PrecipitationIn,Events,Conditions,WindDirDegrees,DateUTC
12:53 AM,75.9,73.9,94,30.00,10.0,Calm,Calm,-,N/A,,Clear,0,2013-06-27 05:53:00
1:53 AM,75.9,73.9,94,29.99,10.0,Calm,Calm,-,N/A,,Clear,0,2013-06-27 06:53:00
2:53 AM,75.9,73.0,91,30.00,10.0,Calm,Calm,-,N/A,,Clear,0,2013-06-27 07:53:00
3:53 AM,75.0,73.0,94,29.99,10.0,Calm,Calm,-,N/A,,Clear,0,2013-06-27 08:53:00
4:53 AM,73.9,72.0,93,29.99,10.0,SSW,3.5,-,N/A,,Clear,210,2013-06-27 09:53:00
5:53 AM,73.9,72.0,93,30.01,10.0,Calm,Calm,-,N/A,,Clear,0,2013-06-27 10:53:00
6:53 AM,75.0,73.0,94,30.01,10.0,West,3.5,-,N/A,,Partly Cloudy,260,2013-06-27 11:53:00
7:53 AM,79.0,75.0,88,30.01,10.0,West,5.8,-,N/A,,Clear,260,2013-06-27 12:53:00
8:53 AM,82.9,75.0,77,30.01,10.0,West,8.1,-,N/A,,Clear,270,2013-06-27 13:53:00
9:53 AM,86.0,73.9,67,30.00,10.0,West,9.2,-,N/A,,Partly Cloudy,280,2013-06-27 14:53:00
10:24 AM,86.0,73.4,66,30.01,10.0,West,6.9,-,N/A,,Mostly Cloudy,260,2013-06-27 15:24:00
10:43 AM,87.8,73.4,62,30.01,10.0,West,12.7,18.4,N/A,,Scattered Clouds,280,2013-06-27 15:43:00
10:53 AM,87.1,73.0,63,30.01,10.0,WNW,8.1,-,N/A,,Mostly Cloudy,290,2013-06-27 15:53:00
11:53 AM,89.1,73.0,59,29.99,10.0,West,6.9,-,N/A,,Clear,270,2013-06-27 16:53:00
12:53 PM,89.1,73.0,59,29.98,10.0,WNW,9.2,-,N/A,,Partly Cloudy,290,2013-06-27 17:53:00
1:53 PM,88.0,73.9,63,29.95,10.0,West,6.9,-,N/A,,Clear,270,2013-06-27 18:53:00
2:53 PM,89.1,73.0,59,29.94,10.0,West,5.8,-,N/A,,Clear,280,2013-06-27 19:53:00
3:53 PM,88.0,73.9,63,29.93,10.0,WNW,4.6,-,N/A,,Clear,290,2013-06-27 20:53:00
4:53 PM,89.1,73.9,61,29.91,10.0,WNW,4.6,-,N/A,,Clear,300,2013-06-27 21:53:00
5:53 PM,90.0,75.0,61,29.89,10.0,WSW,5.8,-,N/A,,Clear,250,2013-06-27 22:53:00
6:53 PM,87.1,75.9,69,29.90,10.0,WSW,9.2,-,N/A,,Partly Cloudy,240,2013-06-27 23:53:00
7:53 PM,84.0,75.9,76,29.91,10.0,SW,8.1,-,N/A,,Clear,220,2013-06-28 00:53:00
8:53 PM,82.0,75.0,79,29.90,10.0,SSW,6.9,-,N/A,,Clear,210,2013-06-28 01:53:00
9:53 PM,81.0,75.9,85,29.92,10.0,SW,6.9,-,N/A,,Clear,220,2013-06-28 02:53:00
10:53 PM,81.0,75.9,85,29.92,10.0,SW,5.8,-,N/A,,Scattered Clouds,220,2013-06-28 03:53:00
11:53 PM,80.1,75.9,87,29.90,10.0,SSW,8.1,-,N/A,,Partly Cloudy,210,2013-06-28 04:53:00